Morgantown, WV

9:09 AM EST on December 06, 2016 (GMT -0500)
WVU Evansdale NRCCE | | Change Station

Elev 1115 ft 39.65 °N, 79.97 °W | Updated 5 seconds ago

Light Rain
Light Rain
41.0 °F
Feels Like 37 °F
N
5.4
Wind Variable Wind from NE
Gusts 8.1 mph

Today
High -- | Low -- °F
--% Chance of Precip.
Yesterday
High -- | Low -- °F
Precip. -- in
Pressure 29.88 in
Visibility 6.0 miles
Clouds Overcast 3500 ft
Windchill 37 °F
Dew Point 36 °F
Humidity 82%
Rainfall 0.02 in
Snow Depth Not available.
7:26 AM 4:55 PM
Waxing Crescent, 42% visible
METAR KMGW 061353Z VRB04KT 6SM -RA OVC035 06/01 A2985 RMK AO2 SLP116 P0006 T00560006
Pressure 29.88 in
Visibility 6.0 miles
Clouds Overcast 3500 ft
Windchill 37 °F
Dew Point 36 °F
Humidity 82%
Rainfall 0.02 in
Snow Depth Not available.
7:26 AM 4:55 PM
Waxing Crescent, 42% visible
METAR KMGW 061353Z VRB04KT 6SM -RA OVC035 06/01 A2985 RMK AO2 SLP116 P0006 T00560006

10-Day Weather Forecast

Almanac

Astronomy

Dec. 06, 2016 Rise Set
Actual Time
Civil Twilight
Nautical Twilight
Astronomical Twilight
Moon
Length of Visible Light
Length of Day
Tomorrow will be .
, % of the Moon is Illuminated

Today's Extremes

State Highs State Lows

Community

WunderPhotos

Upload Photos

1,955,949 photos uploaded!

WunderBlog® & News

Nearby

Air Quality

  Air Quality AQ Index Pollutant
Not available.

Snow Depth

Station Depth Elevation

Earthquake Activity

City Distance Mag. Time & Date
Minimum magnitude displayed is 2.5.

Coastal Water Temperatures

Place Temperature

Stations

Nearby Weather Stations

Station Location Temp. Windchill Dew Point Humidity Wind Precip. Elev Updated Type
                   

Watches & Warnings

There are currently no watches in effect.